createdAt,value
2023-03-26T00:01:12.740Z,0.80
2023-03-26T00:03:39.243Z,1.00
2023-03-26T00:06:05.603Z,0.80
2023-03-26T00:08:31.951Z,0.95
2023-03-26T00:10:59.538Z,0.90
2023-03-26T00:13:27.276Z,0.88
2023-03-26T00:15:53.804Z,1.00
2023-03-26T00:18:20.294Z,1.00
2023-03-26T00:20:46.609Z,1.00
2023-03-26T00:23:12.933Z,0.88
2023-03-26T00:25:39.311Z,1.05
2023-03-26T00:28:05.658Z,1.00
2023-03-26T00:30:32.033Z,0.82
2023-03-26T00:32:58.412Z,0.90
2023-03-26T00:35:24.745Z,1.40
2023-03-26T00:37:51.176Z,1.00
2023-03-26T00:40:17.614Z,0.90
2023-03-26T00:42:43.925Z,1.10
2023-03-26T00:45:10.265Z,1.00
2023-03-26T00:47:36.663Z,1.00
2023-03-26T00:50:03.249Z,0.90
2023-03-26T00:52:29.586Z,0.93
2023-03-26T00:54:55.951Z,0.90
2023-03-26T00:57:34.466Z,1.08
2023-03-26T01:00:02.189Z,0.93
2023-03-26T01:02:28.603Z,0.80
2023-03-26T01:04:55.022Z,0.80
2023-03-26T01:07:21.542Z,0.90
2023-03-26T01:09:47.888Z,0.90
2023-03-26T01:12:14.220Z,1.00
2023-03-26T01:14:40.800Z,0.90
2023-03-26T01:17:07.259Z,0.80
2023-03-26T01:19:33.656Z,0.80
2023-03-26T01:22:00.040Z,0.73
2023-03-26T01:24:26.397Z,0.90
2023-03-26T01:26:52.802Z,0.90
2023-03-26T01:29:19.198Z,1.00
2023-03-26T01:31:45.523Z,0.90
2023-03-26T01:34:12.123Z,0.90
2023-03-26T01:36:38.474Z,0.93
2023-03-26T01:39:04.792Z,0.95
2023-03-26T01:41:31.121Z,0.90
2023-03-26T01:43:57.484Z,0.93
2023-03-26T01:46:23.838Z,0.98
2023-03-26T01:48:50.182Z,1.00
2023-03-26T01:51:16.576Z,1.00
2023-03-26T01:53:42.897Z,1.10
2023-03-26T01:56:09.253Z,0.90
2023-03-26T01:58:35.633Z,0.90
2023-03-26T02:01:01.996Z,0.90
2023-03-26T02:03:28.472Z,0.70
2023-03-26T02:05:55.210Z,0.80
2023-03-26T02:08:21.709Z,1.00
2023-03-26T02:10:48.494Z,0.90
2023-03-26T02:13:14.875Z,0.88
2023-03-26T02:15:41.224Z,0.80
2023-03-26T02:18:07.555Z,0.75
2023-03-26T02:20:34.131Z,0.90
2023-03-26T02:23:00.592Z,0.90
2023-03-26T02:25:27.977Z,0.90
2023-03-26T02:27:56.895Z,0.80
2023-03-26T02:30:23.350Z,0.70
2023-03-26T02:32:50.238Z,0.75
2023-03-26T02:35:16.839Z,0.93
2023-03-26T02:37:43.196Z,0.88
2023-03-26T02:40:14.806Z,0.80
2023-03-26T02:42:43.168Z,0.80
2023-03-26T02:45:09.704Z,0.90
2023-03-26T02:48:14.459Z,0.77
2023-03-26T02:50:50.510Z,0.63
2023-03-26T02:53:28.621Z,0.80
2023-03-26T02:56:08.226Z,0.88
2023-03-26T02:58:42.054Z,0.70
2023-03-26T03:01:08.564Z,0.90
2023-03-26T03:03:42.767Z,0.80
2023-03-26T03:06:26.812Z,0.75
2023-03-26T03:08:57.219Z,0.60
2023-03-26T03:11:35.657Z,0.60
2023-03-26T03:14:02.048Z,0.93
2023-03-26T03:16:29.757Z,0.80
2023-03-26T03:18:58.790Z,0.65
2023-03-26T03:21:34.277Z,0.70
2023-03-26T03:24:00.741Z,0.65
2023-03-26T03:26:30.714Z,0.75
2023-03-26T03:29:02.549Z,0.68
2023-03-26T03:31:29.186Z,0.60
2023-03-26T03:34:01.913Z,0.68
2023-03-26T03:36:31.308Z,0.80
2023-03-26T03:39:04.370Z,0.80
2023-03-26T03:41:31.512Z,0.80
2023-03-26T03:44:00.638Z,0.68
2023-03-26T03:46:29.562Z,0.70
2023-03-26T03:48:56.016Z,0.60
2023-03-26T03:51:30.167Z,0.63
2023-03-26T03:53:59.101Z,0.70
2023-03-26T03:56:54.409Z,0.68
2023-03-26T03:59:37.328Z,0.70
2023-03-26T04:02:06.833Z,0.68
2023-03-26T04:04:40.078Z,0.80
2023-03-26T04:07:10.307Z,0.60
2023-03-26T04:09:56.675Z,0.70
2023-03-26T04:12:24.835Z,0.68
2023-03-26T04:15:00.560Z,0.65
2023-03-26T04:17:27.043Z,0.70
2023-03-26T04:19:55.340Z,0.80
2023-03-26T04:22:25.733Z,0.70
2023-03-26T04:24:55.970Z,0.70
2023-03-26T04:27:28.521Z,0.70
2023-03-26T04:30:03.059Z,0.60
2023-03-26T04:32:30.415Z,0.60
2023-03-26T04:34:56.967Z,0.57
2023-03-26T04:37:24.981Z,0.57
2023-03-26T04:40:00.486Z,0.80
2023-03-26T04:42:49.563Z,0.73
2023-03-26T04:45:29.666Z,0.85
2023-03-26T04:47:56.270Z,0.70
2023-03-26T04:50:22.771Z,0.60
2023-03-26T04:52:49.425Z,0.68
2023-03-26T04:55:35.696Z,0.80
2023-03-26T04:58:09.364Z,0.80
2023-03-26T05:00:54.589Z,0.70
2023-03-26T05:03:21.251Z,0.60
2023-03-26T05:05:48.662Z,0.77
2023-03-26T05:08:15.937Z,0.60
2023-03-26T05:10:42.526Z,0.50
2023-03-26T05:13:13.530Z,0.60
2023-03-26T05:15:45.749Z,0.68
2023-03-26T05:18:18.535Z,0.70
2023-03-26T05:20:50.764Z,0.70
2023-03-26T05:23:17.515Z,0.65
2023-03-26T05:25:49.812Z,0.60
2023-03-26T05:28:19.672Z,0.70
2023-03-26T05:31:06.247Z,0.68
2023-03-26T05:33:36.327Z,0.50
2023-03-26T05:36:07.156Z,0.60
2023-03-26T05:38:33.594Z,0.60
2023-03-26T05:41:01.644Z,0.80
2023-03-26T05:43:28.454Z,0.50
2023-03-26T05:46:12.535Z,0.70
2023-03-26T05:48:38.988Z,0.60
2023-03-26T05:51:05.702Z,0.70
2023-03-26T05:53:32.728Z,0.70
2023-03-26T05:56:31.405Z,0.70
2023-03-26T05:59:29.759Z,0.70
2023-03-26T06:02:15.133Z,0.52
2023-03-26T06:05:00.081Z,0.63
2023-03-26T06:07:26.499Z,0.70
2023-03-26T06:10:07.804Z,0.70
2023-03-26T06:12:34.232Z,0.70
2023-03-26T06:15:00.570Z,0.60
2023-03-26T06:17:39.838Z,0.70
2023-03-26T06:20:26.443Z,0.60
2023-03-26T06:22:54.144Z,0.70
2023-03-26T06:25:38.944Z,0.50
2023-03-26T06:28:20.898Z,0.80
2023-03-26T06:31:10.322Z,0.75
2023-03-26T06:33:41.862Z,0.80
2023-03-26T06:36:10.050Z,0.60
2023-03-26T06:38:37.204Z,0.60
2023-03-26T06:41:05.636Z,0.70
2023-03-26T06:43:52.212Z,0.50
2023-03-26T06:46:37.233Z,0.70
2023-03-26T06:49:22.069Z,0.80
2023-03-26T06:52:08.763Z,0.60
2023-03-26T06:55:01.205Z,0.73
2023-03-26T06:57:53.920Z,0.60
2023-03-26T07:00:43.712Z,0.57
2023-03-26T07:03:28.630Z,0.82
2023-03-26T07:06:18.029Z,0.60
2023-03-26T07:11:48.108Z,0.60
2023-03-26T07:14:34.520Z,0.70
2023-03-26T07:17:10.481Z,0.65
2023-03-26T07:19:59.691Z,0.90
2023-03-26T07:22:26.255Z,0.75
2023-03-26T07:25:31.404Z,0.83
2023-03-26T07:28:06.777Z,0.70
2023-03-26T07:31:08.249Z,0.68
2023-03-26T07:33:39.449Z,0.80
2023-03-26T07:36:20.797Z,0.80
2023-03-26T07:39:03.605Z,0.80
2023-03-26T07:41:56.480Z,0.82
2023-03-26T07:45:01.140Z,0.80
2023-03-26T07:47:39.323Z,0.85
2023-03-26T07:50:23.927Z,1.00
2023-03-26T07:53:07.989Z,0.50
2023-03-26T07:55:52.205Z,0.60
2023-03-26T07:58:36.671Z,0.60
2023-03-26T08:01:31.839Z,0.75
2023-03-26T08:03:58.670Z,0.65
2023-03-26T08:07:08.760Z,0.75
2023-03-26T08:09:55.134Z,0.60
2023-03-26T08:12:32.968Z,0.65
2023-03-26T08:14:59.461Z,0.70
2023-03-26T08:17:25.791Z,0.70
2023-03-26T08:19:52.146Z,0.70
2023-03-26T08:22:18.590Z,0.90
2023-03-26T08:24:44.884Z,0.85
2023-03-26T08:27:11.203Z,0.65
2023-03-26T08:29:37.551Z,0.63
2023-03-26T08:32:03.891Z,0.75
2023-03-26T08:34:30.201Z,0.70
2023-03-26T08:36:56.597Z,0.70
2023-03-26T08:39:22.958Z,0.98
2023-03-26T08:41:49.306Z,0.80
2023-03-26T08:44:15.691Z,0.80
2023-03-26T08:46:43.285Z,0.80
2023-03-26T08:49:09.628Z,0.70
2023-03-26T08:51:35.986Z,0.70
2023-03-26T08:54:02.304Z,0.88
2023-03-26T08:56:28.663Z,0.60
2023-03-26T08:58:57.141Z,0.70
2023-03-26T09:01:23.472Z,0.70
2023-03-26T09:03:49.874Z,0.70
2023-03-26T09:06:17.757Z,0.70
2023-03-26T09:08:54.073Z,0.70
2023-03-26T09:11:21.129Z,0.60
2023-03-26T09:13:47.514Z,0.60
2023-03-26T09:16:13.832Z,0.70
2023-03-26T09:18:41.521Z,0.70
2023-03-26T09:21:07.846Z,0.50
2023-03-26T09:23:34.162Z,0.80
2023-03-26T09:26:00.516Z,0.70
2023-03-26T09:28:26.864Z,0.60
2023-03-26T09:30:53.499Z,0.77
2023-03-26T09:33:20.149Z,0.90
2023-03-26T09:35:46.485Z,0.70
2023-03-26T09:38:12.832Z,0.70
2023-03-26T09:40:39.210Z,1.08
2023-03-26T09:43:05.527Z,0.60
2023-03-26T09:45:31.994Z,0.80
2023-03-26T09:47:58.456Z,0.70
2023-03-26T09:50:24.813Z,0.70
2023-03-26T09:52:51.136Z,0.82
2023-03-26T09:55:17.514Z,0.70
2023-03-26T09:57:43.860Z,0.65
2023-03-26T10:00:10.185Z,0.80
2023-03-26T10:02:46.180Z,0.63
2023-03-26T10:05:13.815Z,0.68
2023-03-26T10:07:40.182Z,0.70
2023-03-26T10:10:06.491Z,0.60
2023-03-26T10:12:32.879Z,0.52
2023-03-26T10:14:59.232Z,0.80
2023-03-26T10:17:25.663Z,0.80
2023-03-26T10:19:52.173Z,0.82
2023-03-26T10:22:19.146Z,0.98
2023-03-26T10:24:45.487Z,0.70
2023-03-26T10:27:11.800Z,0.73
2023-03-26T10:29:38.169Z,0.60
2023-03-26T10:32:04.477Z,0.95
2023-03-26T10:34:30.787Z,0.68
2023-03-26T10:36:57.196Z,0.60
2023-03-26T10:39:37.967Z,0.70
2023-03-26T10:42:05.738Z,0.70
2023-03-26T10:44:32.077Z,0.70
2023-03-26T10:46:58.417Z,0.70
2023-03-26T10:49:24.797Z,0.57
2023-03-26T10:51:51.128Z,0.68
2023-03-26T10:54:19.237Z,0.60
2023-03-26T10:56:45.645Z,0.70
2023-03-26T10:59:11.966Z,0.75
2023-03-26T11:01:38.327Z,0.73
2023-03-26T11:04:04.726Z,0.60
2023-03-26T11:06:31.045Z,0.60
2023-03-26T11:08:57.407Z,0.60
2023-03-26T11:11:23.780Z,0.65
2023-03-26T11:13:50.110Z,0.80
2023-03-26T11:16:16.527Z,0.63
2023-03-26T11:18:43.051Z,0.80
2023-03-26T11:21:19.717Z,0.60
2023-03-26T11:23:46.946Z,0.60
2023-03-26T11:26:13.304Z,0.60
2023-03-26T11:28:41.635Z,0.60
2023-03-26T11:31:28.836Z,0.80
2023-03-26T11:33:55.997Z,0.60
2023-03-26T11:36:22.409Z,0.70
2023-03-26T11:38:48.821Z,0.80
2023-03-26T11:41:22.851Z,0.70
2023-03-26T11:43:59.555Z,0.80
2023-03-26T11:46:29.224Z,0.80
2023-03-26T11:48:55.624Z,0.60
2023-03-26T11:51:21.976Z,0.80
2023-03-26T11:53:48.296Z,0.60
2023-03-26T11:56:14.654Z,0.75
2023-03-26T11:58:40.998Z,0.60
2023-03-26T12:01:07.396Z,0.80
2023-03-26T12:03:33.769Z,0.60
2023-03-26T12:06:00.141Z,0.80
2023-03-26T12:08:26.447Z,0.70
2023-03-26T12:10:52.908Z,0.60
2023-03-26T12:13:19.388Z,0.68
2023-03-26T12:15:45.704Z,0.50
2023-03-26T12:18:12.113Z,0.65
2023-03-26T12:20:38.476Z,1.05
2023-03-26T12:23:04.801Z,0.80
2023-03-26T12:25:32.804Z,0.60
2023-03-26T12:27:59.176Z,0.52
2023-03-26T12:30:25.519Z,0.60
2023-03-26T12:32:53.289Z,0.57
2023-03-26T12:35:20.109Z,0.50
2023-03-26T12:37:46.419Z,0.70
2023-03-26T12:40:15.985Z,0.60
2023-03-26T12:44:48.504Z,0.60
2023-03-26T12:45:31.012Z,0.60
2023-03-26T12:48:04.064Z,0.70
2023-03-26T12:50:34.455Z,0.73
2023-03-26T12:53:01.851Z,0.60
2023-03-26T12:55:28.160Z,0.57
2023-03-26T12:57:54.566Z,0.60
2023-03-26T13:00:20.974Z,0.60
2023-03-26T13:02:47.413Z,0.60
2023-03-26T13:05:13.881Z,0.60
2023-03-26T13:07:40.247Z,0.80
2023-03-26T13:10:06.621Z,0.57
2023-03-26T13:12:32.957Z,0.50
2023-03-26T13:15:00.375Z,0.50
2023-03-26T13:17:26.761Z,0.60
2023-03-26T13:19:53.104Z,0.50
2023-03-26T13:22:19.460Z,0.43
2023-03-26T13:24:46.712Z,0.70
2023-03-26T13:27:13.045Z,0.60
2023-03-26T13:29:39.397Z,0.80
2023-03-26T13:32:05.826Z,1.23
2023-03-26T13:34:32.229Z,0.80
2023-03-26T13:36:58.630Z,0.70
2023-03-26T13:39:24.976Z,0.82
2023-03-26T13:41:51.295Z,0.70
2023-03-26T13:44:17.669Z,0.70
2023-03-26T13:46:44.068Z,0.70
2023-03-26T13:49:10.448Z,0.70
2023-03-26T13:51:36.894Z,0.50
2023-03-26T13:54:03.218Z,0.90
2023-03-26T13:56:29.525Z,0.90
2023-03-26T13:58:56.014Z,0.80
2023-03-26T14:01:22.386Z,0.60
2023-03-26T14:03:48.752Z,0.70
2023-03-26T14:06:15.179Z,0.70
2023-03-26T14:08:41.569Z,0.80
2023-03-26T14:11:07.938Z,0.73
2023-03-26T14:13:34.303Z,0.70
2023-03-26T14:16:00.667Z,0.60
2023-03-26T14:18:26.999Z,0.57
2023-03-26T14:20:53.459Z,0.85
2023-03-26T14:23:19.853Z,0.68
2023-03-26T14:25:46.150Z,0.63
2023-03-26T14:28:12.507Z,0.80
2023-03-26T14:30:38.836Z,0.60
2023-03-26T14:33:05.253Z,0.63
2023-03-26T14:35:31.688Z,0.60
2023-03-26T14:37:58.039Z,0.68
2023-03-26T14:40:24.357Z,0.50
2023-03-26T14:42:50.749Z,0.57
2023-03-26T14:45:17.070Z,0.50
2023-03-26T14:47:43.497Z,0.60
2023-03-26T14:50:09.927Z,0.80
2023-03-26T14:52:36.242Z,0.70
2023-03-26T14:55:02.542Z,0.70
2023-03-26T14:57:28.902Z,0.70
2023-03-26T14:59:55.237Z,0.63
2023-03-26T15:02:21.687Z,0.77
2023-03-26T15:04:48.181Z,0.47
2023-03-26T15:07:14.489Z,0.60
2023-03-26T15:09:40.828Z,0.60
2023-03-26T15:12:12.157Z,0.70
2023-03-26T15:14:39.656Z,0.60
2023-03-26T15:17:06.070Z,0.65
2023-03-26T15:19:32.409Z,0.70
2023-03-26T15:21:58.726Z,0.80
2023-03-26T15:24:25.024Z,0.60
2023-03-26T15:26:51.391Z,0.73
2023-03-26T15:29:17.716Z,0.77
2023-03-26T15:31:44.057Z,0.77
2023-03-26T15:34:10.435Z,0.70
2023-03-26T15:36:36.936Z,0.60
2023-03-26T15:39:03.304Z,0.70
2023-03-26T15:41:29.681Z,0.80
2023-03-26T15:44:23.111Z,0.80
2023-03-26T15:46:42.549Z,0.70
2023-03-26T15:49:09.748Z,0.80
2023-03-26T15:51:47.142Z,0.65
2023-03-26T15:54:14.105Z,0.82
2023-03-26T15:56:40.477Z,0.80
2023-03-26T15:59:06.877Z,0.80
2023-03-26T16:01:33.313Z,0.90
2023-03-26T16:03:59.747Z,0.82
2023-03-26T16:06:26.130Z,0.75
2023-03-26T16:08:52.500Z,0.80
2023-03-26T16:11:18.824Z,0.47
2023-03-26T16:13:45.131Z,0.80
2023-03-26T16:16:11.532Z,0.80
2023-03-26T16:18:37.953Z,0.60
2023-03-26T16:21:04.324Z,0.60
2023-03-26T16:23:30.745Z,0.98
2023-03-26T16:25:57.062Z,0.80
2023-03-26T16:28:23.384Z,0.75
2023-03-26T16:30:49.770Z,0.70
2023-03-26T16:33:16.134Z,0.70
2023-03-26T16:35:42.480Z,0.70
2023-03-26T16:38:08.866Z,0.68
2023-03-26T16:40:35.196Z,0.70
2023-03-26T16:43:01.578Z,0.70
2023-03-26T16:45:27.940Z,0.73
2023-03-26T16:47:54.271Z,0.70
2023-03-26T16:50:20.644Z,0.80
2023-03-26T16:52:47.050Z,0.75
2023-03-26T16:55:13.412Z,0.70
2023-03-26T16:57:39.741Z,0.90
2023-03-26T17:00:07.469Z,0.70
2023-03-26T17:02:34.146Z,0.63
2023-03-26T17:05:00.533Z,0.70
2023-03-26T17:07:26.949Z,0.60
2023-03-26T17:09:53.285Z,0.80
2023-03-26T17:12:19.636Z,0.70
2023-03-26T17:14:46.005Z,0.80
2023-03-26T17:17:12.392Z,1.10
2023-03-26T17:19:38.748Z,0.70
2023-03-26T17:22:05.115Z,0.70
2023-03-26T17:24:31.451Z,0.60
2023-03-26T17:27:29.770Z,0.68
2023-03-26T17:29:56.253Z,0.80
2023-03-26T17:32:22.590Z,0.80
2023-03-26T17:34:48.977Z,0.60
2023-03-26T17:37:15.375Z,0.60
2023-03-26T17:39:41.710Z,0.60
2023-03-26T17:42:08.096Z,0.70
2023-03-26T17:44:34.422Z,0.70
2023-03-26T17:47:00.726Z,0.80
2023-03-26T17:49:27.104Z,0.77
2023-03-26T17:51:53.431Z,0.70
2023-03-26T17:54:19.751Z,0.70
2023-03-26T17:56:46.142Z,0.60
2023-03-26T17:59:12.617Z,0.70
2023-03-26T18:01:39.038Z,0.70
2023-03-26T18:04:05.424Z,0.82
2023-03-26T18:06:31.746Z,0.73
2023-03-26T18:08:58.085Z,0.95
2023-03-26T18:11:24.446Z,0.90
2023-03-26T18:13:50.771Z,0.75
2023-03-26T18:16:17.168Z,0.75
2023-03-26T18:18:43.533Z,0.90
2023-03-26T18:21:09.863Z,0.73
2023-03-26T18:23:36.176Z,0.68
2023-03-26T18:26:03.017Z,0.77
2023-03-26T18:28:29.405Z,0.90
2023-03-26T18:30:55.867Z,0.90
2023-03-26T18:33:22.279Z,0.80
2023-03-26T18:35:48.607Z,1.00
2023-03-26T18:38:15.017Z,0.90
2023-03-26T18:40:41.365Z,1.08
2023-03-26T18:43:07.674Z,0.90
2023-03-26T18:45:34.023Z,0.90
2023-03-26T18:48:00.463Z,0.93
2023-03-26T18:50:26.800Z,1.05
2023-03-26T18:52:53.112Z,0.90
2023-03-26T18:55:19.491Z,1.08
2023-03-26T18:57:45.821Z,1.00
2023-03-26T19:00:12.149Z,0.90
2023-03-26T19:02:38.593Z,1.00
2023-03-26T19:05:04.970Z,0.90
2023-03-26T19:07:31.282Z,1.02
2023-03-26T19:09:57.637Z,1.02
2023-03-26T19:12:23.962Z,1.27
2023-03-26T19:14:50.293Z,1.30
2023-03-26T19:17:16.677Z,1.10
2023-03-26T19:19:42.994Z,1.02
2023-03-26T19:22:09.326Z,1.13
2023-03-26T19:24:35.708Z,1.00
2023-03-26T19:27:02.020Z,0.93
2023-03-26T19:29:28.423Z,1.13
2023-03-26T19:31:54.802Z,1.15
2023-03-26T19:34:21.138Z,0.98
2023-03-26T19:36:47.480Z,1.02
2023-03-26T19:39:17.352Z,1.10
2023-03-26T19:41:47.972Z,1.35
2023-03-26T19:44:14.302Z,1.10
2023-03-26T19:46:53.656Z,1.27
2023-03-26T19:49:28.438Z,1.20
2023-03-26T19:51:54.892Z,1.13
2023-03-26T19:54:21.280Z,1.17
2023-03-26T19:56:47.714Z,1.10
2023-03-26T19:59:14.046Z,0.95
2023-03-26T20:01:40.417Z,1.23
2023-03-26T20:04:06.934Z,1.10
2023-03-26T20:06:43.249Z,1.20
2023-03-26T20:09:10.414Z,1.30
2023-03-26T20:11:36.732Z,1.02
2023-03-26T20:14:03.062Z,1.02
2023-03-26T20:16:29.441Z,1.10
2023-03-26T20:18:55.781Z,1.20
2023-03-26T20:21:22.122Z,1.15
2023-03-26T20:23:48.482Z,1.00
2023-03-26T20:26:14.867Z,1.25
2023-03-26T20:28:48.382Z,1.15
2023-03-26T20:31:15.160Z,1.40
2023-03-26T20:33:41.493Z,1.40
2023-03-26T20:36:07.852Z,1.20
2023-03-26T20:38:39.352Z,1.30
2023-03-26T20:41:06.392Z,1.35
2023-03-26T20:43:32.707Z,1.10
2023-03-26T20:45:59.079Z,1.25
2023-03-26T20:48:25.401Z,1.30
2023-03-26T20:50:51.740Z,1.30
2023-03-26T20:53:18.128Z,0.90
2023-03-26T20:55:44.454Z,1.30
2023-03-26T20:58:10.780Z,1.20
2023-03-26T21:00:37.303Z,1.20
2023-03-26T21:03:03.809Z,1.20
2023-03-26T21:05:30.174Z,1.20
2023-03-26T21:07:56.681Z,1.35
2023-03-26T21:10:22.993Z,1.45
2023-03-26T21:12:49.390Z,1.05
2023-03-26T21:15:23.030Z,1.30
2023-03-26T21:17:50.171Z,1.27
2023-03-26T21:20:16.591Z,1.20
2023-03-26T21:22:42.932Z,1.25
2023-03-26T21:25:09.255Z,1.30
2023-03-26T21:27:35.633Z,1.20
2023-03-26T21:30:01.957Z,1.42
2023-03-26T21:32:28.319Z,1.48
2023-03-26T21:37:23.915Z,1.48
2023-03-26T21:39:50.239Z,1.33
2023-03-26T21:42:16.601Z,1.58
2023-03-26T21:44:42.946Z,1.40
2023-03-26T21:47:09.908Z,1.63
2023-03-26T21:49:36.426Z,1.55
2023-03-26T21:52:02.726Z,1.42
2023-03-26T21:54:29.044Z,1.30
2023-03-26T21:56:55.443Z,1.40
2023-03-26T21:59:21.781Z,1.40
2023-03-26T22:01:48.156Z,1.27
2023-03-26T22:04:14.548Z,1.60
2023-03-26T22:06:40.867Z,1.40
2023-03-26T22:09:07.219Z,1.48
2023-03-26T22:11:33.573Z,1.52
2023-03-26T22:13:59.893Z,1.42
2023-03-26T22:16:26.225Z,1.60
2023-03-26T22:18:52.620Z,1.50
2023-03-26T22:21:18.941Z,1.60
2023-03-26T22:23:45.255Z,1.80
2023-03-26T22:26:11.598Z,1.58
2023-03-26T22:28:37.904Z,1.60
2023-03-26T22:31:04.318Z,1.42
2023-03-26T22:33:30.712Z,1.40
2023-03-26T22:35:57.088Z,1.42
2023-03-26T22:38:23.458Z,1.70
2023-03-26T22:40:49.812Z,1.48
2023-03-26T22:43:16.145Z,1.42
2023-03-26T22:45:42.476Z,1.52
2023-03-26T22:48:09.028Z,1.60
2023-03-26T22:50:35.377Z,1.35
2023-03-26T22:53:01.753Z,1.40
2023-03-26T22:55:29.735Z,1.50
2023-03-26T22:57:56.411Z,1.40
2023-03-26T23:00:22.802Z,1.38
2023-03-26T23:02:49.227Z,1.63
2023-03-26T23:05:15.551Z,1.73
2023-03-26T23:07:41.919Z,1.60
2023-03-26T23:10:08.279Z,1.83
2023-03-26T23:12:34.590Z,1.70
2023-03-26T23:15:00.973Z,1.80
2023-03-26T23:17:27.385Z,1.90
2023-03-26T23:19:53.714Z,1.70
2023-03-26T23:22:20.064Z,1.65
2023-03-26T23:24:46.428Z,1.55
2023-03-26T23:27:12.831Z,1.63
2023-03-26T23:29:39.155Z,1.70
2023-03-26T23:32:24.166Z,1.42
2023-03-26T23:34:52.267Z,1.63
2023-03-26T23:37:19.168Z,2.13
2023-03-26T23:39:45.497Z,1.98
2023-03-26T23:42:11.886Z,1.88
2023-03-26T23:44:38.241Z,1.52
2023-03-26T23:47:04.569Z,1.73
2023-03-26T23:49:30.920Z,1.90
2023-03-26T23:51:57.302Z,1.98
2023-03-26T23:54:23.611Z,1.60
2023-03-26T23:56:50.024Z,1.98
2023-03-26T23:59:16.634Z,1.80
